createdAt,value
2022-08-09T00:01:54.583Z,20.76
2022-08-09T00:04:34.598Z,20.61
2022-08-09T00:07:07.771Z,20.70
2022-08-09T00:09:39.574Z,20.64
2022-08-09T00:12:09.637Z,20.52
2022-08-09T00:14:55.936Z,20.62
2022-08-09T00:18:07.675Z,20.77
2022-08-09T00:20:14.357Z,20.95
2022-08-09T00:22:47.119Z,20.70
2022-08-09T00:25:23.106Z,20.63
2022-08-09T00:27:52.118Z,20.89
2022-08-09T00:30:25.933Z,21.06
2022-08-09T00:32:55.624Z,21.10
2022-08-09T00:35:24.091Z,21.07
2022-08-09T00:37:52.471Z,20.84
2022-08-09T00:40:22.068Z,20.93
2022-08-09T00:44:14.089Z,20.76
2022-08-09T00:45:53.813Z,20.87
2022-08-09T00:48:22.719Z,20.87
2022-08-09T00:50:52.224Z,20.57
2022-08-09T00:53:23.941Z,20.35
2022-08-09T00:56:05.769Z,20.66
2022-08-09T00:58:39.178Z,20.68
2022-08-09T01:01:20.793Z,20.82
2022-08-09T01:04:03.539Z,20.75
2022-08-09T01:06:54.648Z,20.65
2022-08-09T01:10:07.161Z,20.93
2022-08-09T01:12:45.717Z,20.83
2022-08-09T01:15:24.616Z,20.85
2022-08-09T01:18:01.914Z,20.76
2022-08-09T01:21:06.184Z,20.80
2022-08-09T01:24:25.787Z,21.13
2022-08-09T01:27:09.595Z,20.97
2022-08-09T01:29:56.588Z,21.07
2022-08-09T01:32:48.700Z,21.03
2022-08-09T01:35:38.319Z,20.92
2022-08-09T01:38:15.838Z,20.80
2022-08-09T01:41:09.483Z,20.83
2022-08-09T01:43:51.013Z,20.81
2022-08-09T01:46:31.725Z,20.83
2022-08-09T01:49:18.151Z,20.32
2022-08-09T01:51:55.665Z,20.37
2022-08-09T01:54:32.595Z,20.00
2022-08-09T01:57:14.978Z,20.48
2022-08-09T01:59:51.624Z,20.41
2022-08-09T02:02:31.138Z,20.56
2022-08-09T02:05:15.139Z,20.42
2022-08-09T02:08:38.628Z,20.59
2022-08-09T02:10:53.880Z,20.94
2022-08-09T02:13:40.221Z,20.43
2022-08-09T02:16:12.645Z,20.50
2022-08-09T02:18:48.003Z,20.57
2022-08-09T02:21:22.310Z,20.41
2022-08-09T02:23:57.753Z,20.76
2022-08-09T02:26:30.234Z,20.73
2022-08-09T02:29:06.772Z,20.99
2022-08-09T02:31:43.241Z,20.90
2022-08-09T02:34:40.193Z,20.73
2022-08-09T02:37:17.187Z,20.82
2022-08-09T02:39:55.059Z,20.76
2022-08-09T02:42:39.567Z,20.89
2022-08-09T02:45:15.303Z,20.67
2022-08-09T02:47:59.342Z,20.87
2022-08-09T02:50:45.466Z,20.92
2022-08-09T02:53:38.328Z,20.75
2022-08-09T02:56:14.001Z,20.63
2022-08-09T02:58:44.483Z,19.10
2022-08-09T03:01:29.069Z,18.99
2022-08-09T03:04:18.396Z,18.87
2022-08-09T03:06:49.164Z,18.71
2022-08-09T03:09:20.511Z,19.09
2022-08-09T03:12:05.993Z,19.34
2022-08-09T03:14:41.479Z,19.39
2022-08-09T03:17:16.369Z,19.08
2022-08-09T03:19:58.027Z,19.65
2022-08-09T03:22:42.259Z,19.86
2022-08-09T03:25:25.695Z,20.07
2022-08-09T03:28:11.322Z,20.06
2022-08-09T03:30:41.245Z,20.05
2022-08-09T03:33:19.121Z,20.23
2022-08-09T03:36:13.845Z,20.32
2022-08-09T03:38:43.564Z,19.95
2022-08-09T03:41:16.264Z,20.16
2022-08-09T03:44:03.341Z,19.95
2022-08-09T03:46:36.933Z,20.29
2022-08-09T03:49:08.090Z,19.78
2022-08-09T03:51:58.615Z,19.37
2022-08-09T03:54:39.707Z,19.30
2022-08-09T03:57:20.363Z,19.60
2022-08-09T03:59:56.039Z,19.96
2022-08-09T04:02:32.325Z,19.79
2022-08-09T04:05:06.393Z,20.03
2022-08-09T04:07:52.404Z,19.34
2022-08-09T04:10:29.162Z,19.36
2022-08-09T04:13:04.503Z,19.44
2022-08-09T04:16:17.623Z,19.86
2022-08-09T04:18:22.256Z,20.03
2022-08-09T04:20:53.327Z,20.24
2022-08-09T04:23:23.440Z,20.33
2022-08-09T04:25:55.705Z,20.34
2022-08-09T04:28:33.429Z,20.60
2022-08-09T04:31:09.128Z,20.46
2022-08-09T04:33:51.847Z,20.45
2022-08-09T04:36:25.736Z,20.61
2022-08-09T04:38:56.100Z,19.97
2022-08-09T04:41:33.283Z,19.74
2022-08-09T04:44:06.289Z,19.44
2022-08-09T04:46:37.799Z,19.58
2022-08-09T04:49:40.309Z,19.21
2022-08-09T04:52:21.867Z,18.96
2022-08-09T04:55:04.306Z,19.02
2022-08-09T04:57:54.388Z,19.11
2022-08-09T05:00:24.756Z,19.55
2022-08-09T05:03:30.597Z,19.41
2022-08-09T05:05:51.967Z,19.48
2022-08-09T05:08:33.652Z,19.17
2022-08-09T05:11:02.957Z,19.19
2022-08-09T05:13:33.249Z,19.50
2022-08-09T05:16:02.419Z,19.75
2022-08-09T05:18:42.265Z,19.89
2022-08-09T05:21:22.861Z,20.22
2022-08-09T05:23:58.084Z,20.06
2022-08-09T05:26:37.523Z,20.38
2022-08-09T05:29:17.433Z,19.40
2022-08-09T05:31:56.665Z,19.82
2022-08-09T05:34:30.998Z,20.05
2022-08-09T05:37:11.258Z,19.62
2022-08-09T05:39:43.128Z,19.94
2022-08-09T05:42:17.758Z,19.85
2022-08-09T05:44:52.646Z,20.02
2022-08-09T05:47:24.716Z,19.78
2022-08-09T05:50:30.975Z,20.19
2022-08-09T05:52:44.606Z,19.77
2022-08-09T05:55:24.032Z,19.97
2022-08-09T05:57:57.441Z,19.84
2022-08-09T06:00:32.878Z,19.39
2022-08-09T06:03:04.090Z,19.91
2022-08-09T06:05:57.712Z,19.64
2022-08-09T06:08:27.659Z,20.45
2022-08-09T06:10:58.127Z,20.42
2022-08-09T06:13:28.617Z,20.81
2022-08-09T06:16:04.810Z,20.83
2022-08-09T06:18:34.915Z,20.57
2022-08-09T06:21:06.499Z,21.05
2022-08-09T06:23:57.357Z,20.71
2022-08-09T06:26:28.283Z,20.89
2022-08-09T06:29:00.087Z,21.23
2022-08-09T06:31:40.094Z,21.03
2022-08-09T06:34:26.188Z,20.73
2022-08-09T06:36:59.827Z,20.81
2022-08-09T06:39:48.164Z,19.84
2022-08-09T06:42:24.532Z,20.19
2022-08-09T06:45:00.302Z,20.18
2022-08-09T06:47:39.809Z,20.41
2022-08-09T06:50:14.330Z,21.05
2022-08-09T06:52:48.886Z,21.65
2022-08-09T06:55:23.022Z,21.81
2022-08-09T06:58:03.583Z,21.85
2022-08-09T07:00:51.956Z,21.68
2022-08-09T07:03:28.496Z,21.32
2022-08-09T07:06:04.532Z,21.97
2022-08-09T07:08:37.396Z,21.30
2022-08-09T07:11:12.447Z,21.06
2022-08-09T07:13:45.123Z,21.27
2022-08-09T07:16:39.059Z,21.16
2022-08-09T07:19:15.616Z,21.41
2022-08-09T07:21:56.020Z,21.19
2022-08-09T07:24:31.935Z,20.81
2022-08-09T07:27:33.572Z,20.91
2022-08-09T07:30:01.752Z,20.91
2022-08-09T07:32:32.402Z,21.83
2022-08-09T07:35:10.847Z,21.91
2022-08-09T07:37:45.709Z,21.63
2022-08-09T07:40:18.496Z,21.51
2022-08-09T07:42:59.963Z,21.98
2022-08-09T07:45:37.350Z,22.35
2022-08-09T07:48:25.836Z,21.43
2022-08-09T07:51:09.687Z,21.46
2022-08-09T07:54:05.263Z,21.30
2022-08-09T07:56:44.702Z,21.45
2022-08-09T07:59:25.189Z,21.79
2022-08-09T08:02:06.723Z,22.34
2022-08-09T08:04:37.856Z,22.16
2022-08-09T08:07:15.139Z,22.76
2022-08-09T08:10:08.277Z,23.02
2022-08-09T08:12:45.526Z,23.39
2022-08-09T08:15:18.622Z,23.67
2022-08-09T08:17:58.261Z,22.15
2022-08-09T08:20:32.466Z,22.84
2022-08-09T08:23:16.008Z,22.90
2022-08-09T08:25:53.972Z,22.95
2022-08-09T08:28:35.389Z,22.69
2022-08-09T08:31:14.222Z,23.61
2022-08-09T08:33:53.785Z,24.49
2022-08-09T08:36:29.690Z,25.09
2022-08-09T08:39:00.200Z,25.11
2022-08-09T08:41:51.112Z,25.35
2022-08-09T08:44:26.864Z,25.79
2022-08-09T08:47:00.090Z,26.28
2022-08-09T08:49:46.418Z,26.62
2022-08-09T08:52:52.853Z,26.88
2022-08-09T08:55:10.327Z,26.39
2022-08-09T08:57:38.674Z,26.59
2022-08-09T09:00:16.819Z,26.43
2022-08-09T09:02:52.819Z,27.02
2022-08-09T09:05:32.914Z,27.70
2022-08-09T09:08:29.694Z,27.71
2022-08-09T09:11:06.020Z,27.22
2022-08-09T09:13:55.383Z,27.85
2022-08-09T09:16:35.115Z,24.64
2022-08-09T09:19:37.256Z,26.14
2022-08-09T09:22:15.867Z,24.36
2022-08-09T09:26:00.266Z,24.59
2022-08-09T09:28:06.306Z,24.41
2022-08-09T09:30:52.259Z,24.65
2022-08-09T09:33:20.906Z,25.73
2022-08-09T09:36:01.585Z,24.93
2022-08-09T09:38:58.128Z,26.93
2022-08-09T09:41:32.710Z,26.98
2022-08-09T09:44:12.463Z,24.88
2022-08-09T09:46:45.833Z,25.42
2022-08-09T09:49:23.539Z,26.32
2022-08-09T09:52:16.640Z,26.72
2022-08-09T09:55:28.188Z,26.93
2022-08-09T09:58:15.535Z,26.98
2022-08-09T10:00:59.051Z,28.81
2022-08-09T10:03:38.223Z,29.53
2022-08-09T10:06:09.007Z,29.92
2022-08-09T10:08:54.950Z,30.35
2022-08-09T10:12:00.588Z,29.98
2022-08-09T10:14:33.058Z,27.50
2022-08-09T10:17:39.671Z,28.05
2022-08-09T10:20:05.322Z,27.91
2022-08-09T10:22:39.417Z,26.47
2022-08-09T10:25:11.827Z,28.75
2022-08-09T10:27:57.272Z,28.69
2022-08-09T10:32:07.132Z,28.84
2022-08-09T10:34:04.619Z,28.93
2022-08-09T10:36:09.688Z,26.65
2022-08-09T10:38:56.912Z,27.01
2022-08-09T10:41:28.440Z,29.13
2022-08-09T10:43:59.766Z,29.85
2022-08-09T10:48:12.291Z,29.98
2022-08-09T10:50:27.227Z,31.26
2022-08-09T10:53:19.360Z,28.82
2022-08-09T10:55:58.523Z,29.36
2022-08-09T10:58:37.466Z,26.86
2022-08-09T11:03:15.705Z,26.18
2022-08-09T11:04:30.777Z,25.86
2022-08-09T11:07:01.206Z,25.69
2022-08-09T11:09:50.869Z,25.67
2022-08-09T11:12:30.265Z,26.46
2022-08-09T11:15:24.342Z,28.10
2022-08-09T11:18:02.965Z,28.72
2022-08-09T11:20:47.568Z,26.65
2022-08-09T11:23:23.864Z,27.02
2022-08-09T11:25:54.860Z,27.84
2022-08-09T11:28:38.731Z,28.04
2022-08-09T11:31:49.906Z,28.81
2022-08-09T11:34:43.265Z,30.54
2022-08-09T11:37:31.320Z,31.61
2022-08-09T11:40:17.982Z,31.62
2022-08-09T11:42:48.751Z,29.05
2022-08-09T11:45:43.219Z,29.19
2022-08-09T11:48:18.853Z,28.55
2022-08-09T11:51:21.269Z,29.11
2022-08-09T11:54:01.767Z,29.57
2022-08-09T11:56:41.706Z,27.43
2022-08-09T11:59:30.539Z,28.06
2022-08-09T12:02:18.215Z,27.23
2022-08-09T12:04:54.606Z,27.13
2022-08-09T12:07:41.540Z,27.37
2022-08-09T12:10:31.995Z,29.31
2022-08-09T12:13:03.774Z,28.11
2022-08-09T12:15:52.577Z,28.80
2022-08-09T12:18:29.790Z,29.81
2022-08-09T12:21:03.282Z,28.01
2022-08-09T12:23:47.866Z,27.86
2022-08-09T12:26:26.006Z,27.67
2022-08-09T12:29:00.216Z,28.19
2022-08-09T12:31:58.953Z,26.67
2022-08-09T12:34:38.271Z,27.48
2022-08-09T12:37:23.672Z,28.64
2022-08-09T12:40:08.746Z,28.01
2022-08-09T12:42:43.191Z,28.77
2022-08-09T12:45:33.484Z,27.86
2022-08-09T12:48:01.307Z,27.32
2022-08-09T12:50:31.097Z,29.58
2022-08-09T12:53:09.401Z,29.82
2022-08-09T12:56:14.166Z,29.71
2022-08-09T12:58:42.671Z,26.99
2022-08-09T13:10:05.480Z,27.82
2022-08-09T13:12:39.833Z,27.20
2022-08-09T13:15:09.964Z,26.94
2022-08-09T13:25:55.862Z,27.44
2022-08-09T13:28:35.689Z,27.20
2022-08-09T13:32:15.469Z,27.46
2022-08-09T13:33:59.277Z,28.06
2022-08-09T13:36:40.991Z,28.27
2022-08-09T13:41:17.773Z,29.49
2022-08-09T13:42:12.204Z,29.75
2022-08-09T13:44:43.202Z,29.88
2022-08-09T13:47:26.486Z,28.23
2022-08-09T13:50:17.806Z,29.15
2022-08-09T13:52:48.090Z,29.52
2022-08-09T13:55:17.634Z,28.57
2022-08-09T13:57:53.115Z,28.64
2022-08-09T14:00:29.273Z,28.22
2022-08-09T14:03:04.264Z,29.35
2022-08-09T14:05:58.731Z,28.09
2022-08-09T14:08:35.404Z,30.05
2022-08-09T14:11:15.891Z,30.09
2022-08-09T14:14:22.003Z,29.80
2022-08-09T14:16:33.364Z,31.05
2022-08-09T14:19:03.313Z,31.90
2022-08-09T14:21:32.191Z,32.04
2022-08-09T14:24:09.953Z,31.77
2022-08-09T14:26:38.956Z,32.23
2022-08-09T14:30:34.011Z,29.80
2022-08-09T14:32:05.982Z,30.54
2022-08-09T14:34:41.073Z,30.80
2022-08-09T14:37:09.867Z,30.33
2022-08-09T14:39:46.915Z,30.29
2022-08-09T14:42:30.468Z,30.55
2022-08-09T14:46:39.618Z,30.45
2022-08-09T14:48:02.566Z,28.14
2022-08-09T14:50:35.036Z,27.44
2022-08-09T14:53:11.652Z,28.00
2022-08-09T14:55:48.036Z,27.14
2022-08-09T14:58:19.750Z,27.25
2022-08-09T15:00:51.279Z,27.10
2022-08-09T15:03:21.153Z,27.38
2022-08-09T15:05:55.528Z,27.83
2022-08-09T15:08:30.319Z,28.91
2022-08-09T15:11:01.012Z,29.16
2022-08-09T15:13:56.000Z,27.85
2022-08-09T15:16:19.656Z,27.31
2022-08-09T15:18:48.993Z,27.69
2022-08-09T15:21:56.461Z,28.00
2022-08-09T15:24:13.014Z,28.26
2022-08-09T15:26:48.423Z,27.31
2022-08-09T15:30:48.279Z,27.48
2022-08-09T15:32:29.680Z,28.11
2022-08-09T15:35:00.570Z,28.56
2022-08-09T15:37:37.765Z,28.89
2022-08-09T15:40:31.604Z,27.32
2022-08-09T15:43:01.786Z,27.05
2022-08-09T15:45:30.620Z,26.84
2022-08-09T15:48:28.928Z,26.39
2022-08-09T15:51:02.513Z,26.84
2022-08-09T15:54:04.485Z,26.58
2022-08-09T15:56:36.378Z,26.24
2022-08-09T15:59:04.584Z,26.18
2022-08-09T16:01:35.794Z,26.15
2022-08-09T16:04:04.369Z,26.66
2022-08-09T16:06:35.412Z,27.06
2022-08-09T16:09:06.522Z,26.81
2022-08-09T16:11:34.728Z,27.36
2022-08-09T16:14:08.088Z,26.82
2022-08-09T16:16:39.019Z,27.45
2022-08-09T16:19:16.049Z,27.44
2022-08-09T16:21:51.978Z,27.36
2022-08-09T16:24:33.251Z,27.56
2022-08-09T16:27:04.856Z,27.55
2022-08-09T16:29:37.133Z,27.65
2022-08-09T16:32:19.329Z,27.08
2022-08-09T16:34:57.993Z,26.49
2022-08-09T16:37:56.123Z,27.52
2022-08-09T16:40:29.963Z,27.11
2022-08-09T16:43:05.998Z,26.26
2022-08-09T16:45:34.313Z,26.36
2022-08-09T16:48:41.609Z,27.25
2022-08-09T16:50:59.045Z,26.85
2022-08-09T16:53:37.296Z,26.91
2022-08-09T16:56:09.968Z,26.89
2022-08-09T16:58:42.461Z,26.61
2022-08-09T17:01:23.547Z,26.48
2022-08-09T17:03:52.735Z,25.98
2022-08-09T17:06:28.866Z,26.18
2022-08-09T17:09:17.784Z,25.99
2022-08-09T17:11:52.807Z,26.52
2022-08-09T17:14:27.682Z,26.26
2022-08-09T17:17:02.678Z,26.05
2022-08-09T17:20:05.958Z,25.98
2022-08-09T17:22:31.076Z,25.86
2022-08-09T17:25:04.917Z,26.48
2022-08-09T17:27:49.091Z,26.05
2022-08-09T17:30:28.951Z,26.62
2022-08-09T17:33:05.758Z,25.97
2022-08-09T17:35:51.442Z,25.70
2022-08-09T17:38:32.654Z,26.23
2022-08-09T17:41:08.487Z,26.73
2022-08-09T17:43:37.323Z,25.99
2022-08-09T17:46:09.865Z,26.09
2022-08-09T17:48:51.973Z,26.22
2022-08-09T17:51:21.617Z,25.56
2022-08-09T17:53:55.334Z,25.54
2022-08-09T17:56:36.019Z,25.47
2022-08-09T17:59:11.873Z,25.79
2022-08-09T18:02:07.923Z,25.52
2022-08-09T18:07:48.759Z,25.86
2022-08-09T18:10:17.143Z,25.88
2022-08-09T18:13:40.676Z,25.26
2022-08-09T18:16:05.446Z,25.33
2022-08-09T18:18:25.752Z,25.16
2022-08-09T18:21:12.348Z,25.00
2022-08-09T18:24:12.060Z,25.35
2022-08-09T18:26:35.464Z,25.70
2022-08-09T18:30:39.648Z,25.00
2022-08-09T18:31:55.936Z,24.85
2022-08-09T18:34:24.842Z,25.05
2022-08-09T18:36:53.483Z,25.20
2022-08-09T18:39:24.275Z,25.22
2022-08-09T18:41:53.914Z,25.03
2022-08-09T18:44:27.351Z,24.94
2022-08-09T18:47:07.404Z,24.91
2022-08-09T18:49:46.344Z,24.93
2022-08-09T18:52:18.625Z,25.16
2022-08-09T18:54:53.731Z,24.96
2022-08-09T18:57:22.962Z,24.65
2022-08-09T18:59:57.506Z,24.80
2022-08-09T19:02:30.801Z,25.01
2022-08-09T19:05:19.514Z,24.87
2022-08-09T19:08:04.426Z,24.60
2022-08-09T19:10:39.558Z,24.84
2022-08-09T19:13:22.025Z,24.66
2022-08-09T19:15:53.101Z,24.60
2022-08-09T19:18:33.778Z,24.32
2022-08-09T19:21:09.468Z,24.40
2022-08-09T19:24:36.115Z,24.20
2022-08-09T19:26:34.852Z,24.18
2022-08-09T19:29:18.433Z,24.06
2022-08-09T19:31:51.556Z,24.28
2022-08-09T19:34:23.149Z,24.42
2022-08-09T19:36:55.877Z,24.38
2022-08-09T19:39:43.569Z,24.34
2022-08-09T19:42:19.166Z,24.00
2022-08-09T19:44:51.390Z,24.29
2022-08-09T19:47:23.393Z,24.00
2022-08-09T19:50:07.254Z,24.13
2022-08-09T19:52:49.787Z,24.39
2022-08-09T19:55:30.897Z,24.25
2022-08-09T19:58:16.507Z,24.05
2022-08-09T20:00:47.364Z,24.27
2022-08-09T20:04:17.100Z,24.01
2022-08-09T20:06:10.529Z,24.19
2022-08-09T20:08:56.584Z,24.30
2022-08-09T20:11:27.133Z,24.18
2022-08-09T20:14:15.348Z,23.78
2022-08-09T20:16:54.304Z,23.73
2022-08-09T20:19:48.800Z,23.83
2022-08-09T20:22:14.217Z,23.37
2022-08-09T20:24:53.429Z,23.45
2022-08-09T20:27:22.649Z,23.36
2022-08-09T20:29:51.052Z,23.30
2022-08-09T20:32:41.934Z,23.30
2022-08-09T20:35:09.337Z,22.97
2022-08-09T20:38:23.454Z,23.06
2022-08-09T20:40:28.179Z,22.85
2022-08-09T20:42:59.904Z,23.05
2022-08-09T20:46:00.356Z,22.72
2022-08-09T20:48:31.099Z,22.69
2022-08-09T20:51:01.282Z,22.79
2022-08-09T20:53:36.822Z,22.84
2022-08-09T20:56:20.529Z,22.89
2022-08-09T20:58:59.175Z,22.59
2022-08-09T21:01:34.197Z,22.56
2022-08-09T21:05:49.782Z,22.46
2022-08-09T21:07:11.982Z,22.68
2022-08-09T21:09:45.783Z,22.22
2022-08-09T21:15:23.470Z,22.42
2022-08-09T21:18:11.713Z,22.50
2022-08-09T21:20:43.962Z,22.23
2022-08-09T21:23:26.507Z,22.46
2022-08-09T21:26:11.483Z,22.27
2022-08-09T21:28:46.140Z,22.14
2022-08-09T21:31:24.631Z,21.79
2022-08-09T21:34:13.097Z,21.88
2022-08-09T21:36:45.876Z,22.02
2022-08-09T21:39:27.894Z,21.87
2022-08-09T21:42:11.164Z,21.87
2022-08-09T21:44:42.591Z,21.62
2022-08-09T21:47:17.461Z,21.51
2022-08-09T21:49:48.220Z,21.44
2022-08-09T21:52:20.697Z,21.30
2022-08-09T21:55:03.196Z,21.35
2022-08-09T21:57:38.997Z,21.86
2022-08-09T22:00:33.319Z,21.64
2022-08-09T22:03:07.384Z,21.46
2022-08-09T22:05:41.882Z,21.00
2022-08-09T22:08:16.507Z,21.30
2022-08-09T22:11:05.175Z,21.13
2022-08-09T22:13:37.194Z,21.05
2022-08-09T22:16:08.509Z,21.11
2022-08-09T22:18:43.951Z,21.31
2022-08-09T22:21:45.271Z,21.25
2022-08-09T22:24:21.032Z,21.06
2022-08-09T22:26:54.240Z,20.93
2022-08-09T22:29:28.825Z,20.97
2022-08-09T22:32:07.245Z,21.01
2022-08-09T22:35:02.167Z,20.94
2022-08-09T22:37:40.601Z,21.16
2022-08-09T22:40:18.311Z,20.87
2022-08-09T22:42:48.704Z,20.92
2022-08-09T22:48:14.136Z,20.76
2022-08-09T22:48:29.762Z,20.55
2022-08-09T22:50:53.808Z,20.51
2022-08-09T22:53:22.082Z,20.56
2022-08-09T22:56:30.564Z,20.58
2022-08-09T22:58:39.346Z,20.64
2022-08-09T23:01:08.520Z,20.52
2022-08-09T23:04:03.514Z,20.46
2022-08-09T23:06:29.923Z,20.58
2022-08-09T23:09:06.625Z,20.59
2022-08-09T23:11:35.107Z,20.46
2022-08-09T23:14:04.154Z,20.55
2022-08-09T23:16:38.573Z,20.41
2022-08-09T23:19:06.784Z,20.40
2022-08-09T23:21:36.046Z,20.33
2022-08-09T23:24:07.302Z,19.53
2022-08-09T23:26:37.344Z,19.06
2022-08-09T23:29:13.861Z,19.36
2022-08-09T23:31:42.768Z,19.62
2022-08-09T23:34:11.273Z,19.75
2022-08-09T23:36:39.626Z,19.85
2022-08-09T23:39:08.251Z,19.25
2022-08-09T23:41:36.767Z,19.08
2022-08-09T23:44:05.196Z,19.58
2022-08-09T23:46:34.388Z,19.81
2022-08-09T23:49:03.538Z,19.62
2022-08-09T23:51:31.777Z,19.84
2022-08-09T23:54:02.631Z,20.02
2022-08-09T23:56:53.692Z,19.50
2022-08-09T23:59:25.035Z,19.44
